createdAt,value
2018-04-16T00:01:48.710Z,13
2018-04-16T00:06:45.935Z,13
2018-04-16T00:11:45.145Z,12.9
2018-04-16T00:17:05.210Z,12.9
2018-04-16T00:21:48.879Z,12.9
2018-04-16T00:26:42.694Z,12.9
2018-04-16T00:32:02.314Z,12.9
2018-04-16T00:36:43.535Z,12.9
2018-04-16T00:41:43.543Z,12.8
2018-04-16T00:47:06.260Z,12.8
2018-04-16T00:51:43.333Z,12.8
2018-04-16T00:56:41.924Z,12.8
2018-04-16T01:02:07.867Z,12.7
2018-04-16T01:06:47.654Z,12.7
2018-04-16T01:11:59.504Z,12.7
2018-04-16T01:17:21.033Z,12.7
2018-04-16T01:21:42.394Z,12.7
2018-04-16T01:26:50.807Z,12.6
2018-04-16T01:31:55.549Z,12.6
2018-04-16T01:36:46.721Z,12.5
2018-04-16T01:41:44.140Z,12.5
2018-04-16T01:47:39.635Z,12.5
2018-04-16T01:51:44.840Z,12.5
2018-04-16T01:56:45.185Z,12.4
2018-04-16T02:02:03.358Z,12.4
2018-04-16T02:06:50.557Z,12.4
2018-04-16T02:12:04.226Z,12.4
2018-04-16T02:17:26.721Z,12.3
2018-04-16T02:21:44.659Z,12.2
2018-04-16T02:26:44.339Z,12.2
2018-04-16T02:32:54.341Z,12.1
2018-04-16T02:36:45.510Z,12
2018-04-16T02:41:43.060Z,11.8
2018-04-16T02:46:53.236Z,11.7
2018-04-16T02:51:41.570Z,11.7
2018-04-16T02:56:45.662Z,11.6
2018-04-16T03:01:43.071Z,11.5
2018-04-16T03:06:48.577Z,11.4
2018-04-16T03:11:45.244Z,11.3
2018-04-16T03:16:42.471Z,11.2
2018-04-16T03:21:44.525Z,11.2
2018-04-16T03:26:46.447Z,11.1
2018-04-16T03:31:43.766Z,11
2018-04-16T03:36:45.040Z,11
2018-04-16T03:42:23.667Z,11
2018-04-16T03:46:41.497Z,10.9
2018-04-16T03:51:48.484Z,10.9
2018-04-16T03:56:51.568Z,10.8
2018-04-16T04:01:49.177Z,10.8
2018-04-16T04:06:42.318Z,10.8
2018-04-16T04:11:47.220Z,10.8
2018-04-16T04:16:46.456Z,10.8
2018-04-16T04:21:44.852Z,10.8
2018-04-16T04:26:48.372Z,10.7
2018-04-16T04:31:43.334Z,10.7
2018-04-16T04:36:44.352Z,10.7
2018-04-16T04:46:03.871Z,10.7
2018-04-16T04:50:28.776Z,10.7
2018-04-16T04:52:01.819Z,10.8
2018-04-16T04:57:30.241Z,10.8
2018-04-16T05:08:58.619Z,10.8
2018-04-16T05:27:10.052Z,10.8
2018-04-16T05:28:38.005Z,10.8
2018-04-16T05:30:25.644Z,10.8
2018-04-16T05:33:49.978Z,10.8
2018-04-16T05:49:59.424Z,10.8
2018-04-16T05:50:00.718Z,10.8
2018-04-16T05:50:45.805Z,10.8
2018-04-16T05:50:56.719Z,10.8
2018-04-16T05:51:12.947Z,10.9
2018-04-16T05:51:43.121Z,10.9
2018-04-16T05:57:35.271Z,11
2018-04-16T06:01:48.152Z,11
2018-04-16T06:06:49.125Z,11.1
2018-04-16T06:11:41.769Z,11.1
2018-04-16T06:16:41.455Z,11.2
2018-04-16T06:21:42.739Z,11.2
2018-04-16T06:26:41.733Z,11.3
2018-04-16T06:31:42.917Z,11.3
2018-04-16T06:36:41.469Z,11.5
2018-04-16T06:41:44.160Z,11.6
2018-04-16T06:46:41.352Z,11.7
2018-04-16T06:51:41.308Z,11.9
2018-04-16T06:56:43.077Z,12
2018-04-16T07:01:41.305Z,12.1
2018-04-16T07:06:44.832Z,12.2
2018-04-16T07:11:41.599Z,12.2
2018-04-16T07:16:42.185Z,12.3
2018-04-16T07:21:41.902Z,12.4
2018-04-16T07:26:41.944Z,12.4
2018-04-16T07:31:44.741Z,12.5
2018-04-16T07:36:41.216Z,12.6
2018-04-16T07:41:41.696Z,12.9
2018-04-16T07:46:44.388Z,13.2
2018-04-16T07:51:41.512Z,13.3
2018-04-16T07:56:45.159Z,13.4
2018-04-16T08:01:41.805Z,13.3
2018-04-16T08:06:41.746Z,13.4
2018-04-16T08:11:42.545Z,13.4
2018-04-16T08:16:42.463Z,13.5
2018-04-16T08:21:41.447Z,13.5
2018-04-16T08:26:41.281Z,13.4
2018-04-16T08:31:41.549Z,13.4
2018-04-16T08:36:43.128Z,13.5
2018-04-16T08:41:43.269Z,13.6
2018-04-16T08:46:42.022Z,13.7
2018-04-16T08:51:42.138Z,13.8
2018-04-16T08:56:54.353Z,13.8
2018-04-16T09:01:46.157Z,14
2018-04-16T09:06:41.240Z,14.1
2018-04-16T09:11:43.378Z,14.2
2018-04-16T09:16:45.521Z,14.4
2018-04-16T09:21:41.200Z,14.4
2018-04-16T09:26:43.145Z,14.5
2018-04-16T09:31:48.580Z,14.6
2018-04-16T09:36:41.382Z,14.5
2018-04-16T09:41:41.739Z,14.6
2018-04-16T09:46:46.279Z,14.7
2018-04-16T09:51:41.445Z,14.9
2018-04-16T09:56:43.194Z,15.2
2018-04-16T10:01:45.729Z,15.4
2018-04-16T10:06:41.415Z,15.4
2018-04-16T10:11:41.110Z,15
2018-04-16T10:16:44.570Z,14.7
2018-04-16T10:21:41.060Z,14.7
2018-04-16T10:26:41.470Z,14.5
2018-04-16T10:31:45.309Z,14.5
2018-04-16T10:36:41.016Z,14.6
2018-04-16T10:41:40.959Z,14.9
2018-04-16T10:46:41.721Z,14.9
2018-04-16T10:51:41.669Z,14.7
2018-04-16T10:56:41.650Z,14.9
2018-04-16T11:01:46.559Z,15
2018-04-16T11:06:45.953Z,15.1
2018-04-16T11:11:44.248Z,15.3
2018-04-16T11:16:41.734Z,15.8
2018-04-16T11:21:42.488Z,15.9
2018-04-16T11:26:42.319Z,16.2
2018-04-16T11:31:48.194Z,16.2
2018-04-16T11:36:40.888Z,15.9
2018-04-16T11:41:41.435Z,16.3
2018-04-16T11:46:41.329Z,16.3
2018-04-16T11:51:41.203Z,16
2018-04-16T11:56:50.980Z,16.1
2018-04-16T12:01:42.087Z,16.4
2018-04-16T12:06:41.242Z,16.5
2018-04-16T12:11:41.655Z,16.2
2018-04-16T12:16:41.389Z,16.2
2018-04-16T12:21:42.400Z,16.6
2018-04-16T12:26:41.429Z,16.8
2018-04-16T12:31:41.017Z,17.1
2018-04-16T12:36:41.145Z,16.8
2018-04-16T12:41:41.109Z,16.9
2018-04-16T12:46:41.378Z,16.6
2018-04-16T12:51:41.518Z,16.6
2018-04-16T12:56:42.240Z,16.8
2018-04-16T13:01:40.724Z,16.6
2018-04-16T13:06:41.079Z,16.6
2018-04-16T13:11:41.047Z,16.4
2018-04-16T13:16:40.795Z,16.6
2018-04-16T13:21:41.132Z,16.7
2018-04-16T13:26:40.798Z,17.1
2018-04-16T13:31:41.104Z,17.2
2018-04-16T13:36:41.033Z,17.3
2018-04-16T13:41:41.506Z,17.4
2018-04-16T13:46:40.840Z,17.5
2018-04-16T13:51:41.127Z,17.5
2018-04-16T13:56:41.020Z,17.6
2018-04-16T14:01:41.308Z,17.5
2018-04-16T14:06:41.088Z,17.5
2018-04-16T14:11:43.742Z,17.5
2018-04-16T14:16:40.882Z,17.7
2018-04-16T14:21:41.162Z,17.7
2018-04-16T14:26:44.579Z,17.4
2018-04-16T14:31:41.054Z,17.5
2018-04-16T14:36:40.849Z,17.6
2018-04-16T14:42:03.549Z,17.5
2018-04-16T14:46:40.754Z,17.4
2018-04-16T14:51:41.520Z,17.4
2018-04-16T14:56:57.801Z,17.5
2018-04-16T15:01:41.842Z,17.5
2018-04-16T15:06:40.534Z,17.5
2018-04-16T15:11:46.343Z,17.4
2018-04-16T15:16:41.032Z,17.3
2018-04-16T15:21:40.657Z,17.2
2018-04-16T15:26:49.165Z,17.1
2018-04-16T15:31:41.559Z,17
2018-04-16T15:36:40.675Z,16.8
2018-04-16T15:41:47.466Z,16.7
2018-04-16T15:46:40.876Z,16.6
2018-04-16T15:51:41.413Z,16.5
2018-04-16T15:56:47.703Z,16.4
2018-04-16T16:01:40.355Z,16.4
2018-04-16T16:06:40.874Z,16.2
2018-04-16T16:11:41.919Z,16
2018-04-16T16:16:46.887Z,15.9
2018-04-16T16:21:41.246Z,15.8
2018-04-16T16:26:41.169Z,15.7
2018-04-16T16:31:40.967Z,15.6
2018-04-16T16:36:40.913Z,15.5
2018-04-16T16:41:41.607Z,15.4
2018-04-16T16:46:41.171Z,15.3
2018-04-16T16:51:41.086Z,15.2
2018-04-16T16:56:46.856Z,15.2
2018-04-16T17:01:41.021Z,15.1
2018-04-16T17:06:40.651Z,14.9
2018-04-16T17:11:48.009Z,14.9
2018-04-16T17:16:40.754Z,14.8
2018-04-16T17:21:40.640Z,14.7
2018-04-16T17:26:45.654Z,14.7
2018-04-16T17:31:40.728Z,14.5
2018-04-16T17:36:41.001Z,14.4
2018-04-16T17:41:41.669Z,14.3
2018-04-16T17:46:41.815Z,14.2
2018-04-16T17:51:40.692Z,14.2
2018-04-16T17:56:47.786Z,14.2
2018-04-16T18:01:43.534Z,14.2
2018-04-16T18:06:59.160Z,14
2018-04-16T18:12:34.752Z,13.9
2018-04-16T18:16:47.588Z,13.9
2018-04-16T18:22:20.335Z,13.8
2018-04-16T18:28:01.037Z,13.7
2018-04-16T18:31:51.536Z,13.6
2018-04-16T18:36:54.914Z,13.6
2018-04-16T18:42:28.818Z,13.4
2018-04-16T18:46:43.431Z,13.4
2018-04-16T18:51:56.880Z,13.1
2018-04-16T18:57:01.561Z,13
2018-04-16T19:01:46.059Z,12.9
2018-04-16T19:07:23.600Z,12.8
2018-04-16T19:12:01.243Z,12.6
2018-04-16T19:16:55.750Z,12.6
2018-04-16T19:21:45.701Z,12.5
2018-04-16T19:27:30.748Z,12.4
2018-04-16T19:31:58.127Z,12.4
2018-04-16T19:36:48.434Z,12.4
2018-04-16T19:41:53.436Z,12.4
2018-04-16T19:47:31.347Z,12.4
2018-04-16T19:51:47.692Z,12
2018-04-16T19:56:42.381Z,11.9
2018-04-16T20:01:43.058Z,11.9
2018-04-16T20:07:14.117Z,11.7
2018-04-16T20:11:53.059Z,11.6
2018-04-16T20:16:41.969Z,11.6
2018-04-16T20:21:40.425Z,11.5
2018-04-16T20:26:46.706Z,11.4
2018-04-16T20:31:40.148Z,11.4
2018-04-16T20:36:41.536Z,11.4
2018-04-16T20:41:45.128Z,11.4
2018-04-16T20:46:40.576Z,11.4
2018-04-16T20:51:42.691Z,11.2
2018-04-16T20:56:44.999Z,11.1
2018-04-16T21:01:40.358Z,11
2018-04-16T21:06:42.855Z,10.9
2018-04-16T21:11:45.963Z,10.8
2018-04-16T21:16:43.805Z,10.7
2018-04-16T21:21:40.800Z,10.7
2018-04-16T21:26:49.904Z,10.7
2018-04-16T21:31:40.291Z,10.5
2018-04-16T21:36:39.981Z,10.5
2018-04-16T21:41:54.212Z,10.5
2018-04-16T21:46:40.451Z,10.4
2018-04-16T21:51:42.477Z,10.3
2018-04-16T21:56:48.933Z,10.2
2018-04-16T22:01:40.015Z,10.3
2018-04-16T22:06:40.362Z,10.2
2018-04-16T22:11:57.936Z,10.2
2018-04-16T22:16:40.538Z,10.2
2018-04-16T22:21:46.836Z,10.2
2018-04-16T22:26:41.826Z,10.1
2018-04-16T22:31:41.510Z,10.1
2018-04-16T22:36:40.376Z,10.1
2018-04-16T22:41:43.891Z,10.1
2018-04-16T22:46:41.846Z,10.1
2018-04-16T22:51:41.767Z,10
2018-04-16T22:56:50.196Z,10
2018-04-16T23:01:40.440Z,10
2018-04-16T23:06:40.646Z,10
2018-04-16T23:11:50.358Z,10
2018-04-16T23:16:40.788Z,9.9
2018-04-16T23:21:40.338Z,9.8
2018-04-16T23:26:42.927Z,9.7
2018-04-16T23:31:40.602Z,9.7
2018-04-16T23:36:40.888Z,9.7
2018-04-16T23:41:43.036Z,9.7
2018-04-16T23:46:45.262Z,9.7
2018-04-16T23:51:40.410Z,9.6
2018-04-16T23:56:51.165Z,9.6
